createdAt,value
2022-11-24T00:01:24.218Z,73.17
2022-11-24T00:03:57.422Z,73.08
2022-11-24T00:06:26.600Z,72.75
2022-11-24T00:08:57.197Z,72.82
2022-11-24T00:11:27.060Z,72.46
2022-11-24T00:13:56.063Z,72.63
2022-11-24T00:16:26.235Z,72.86
2022-11-24T00:18:55.915Z,72.95
2022-11-24T00:21:25.326Z,73.07
2022-11-24T00:23:55.510Z,73.08
2022-11-24T00:26:25.162Z,72.76
2022-11-24T00:28:55.458Z,73.08
2022-11-24T00:31:25.831Z,73.42
2022-11-24T00:33:55.816Z,73.13
2022-11-24T00:36:26.707Z,73.28
2022-11-24T00:38:57.897Z,73.18
2022-11-24T00:41:27.611Z,73.64
2022-11-24T00:43:56.308Z,73.86
2022-11-24T00:46:25.773Z,74.01
2022-11-24T00:48:54.774Z,74.37
2022-11-24T00:51:26.617Z,74.48
2022-11-24T00:53:56.709Z,74.93
2022-11-24T00:56:25.539Z,75.19
2022-11-24T00:58:54.297Z,75.21
2022-11-24T01:01:24.502Z,75.38
2022-11-24T01:03:54.718Z,76.21
2022-11-24T01:06:24.978Z,76.73
2022-11-24T01:08:53.759Z,77.25
2022-11-24T01:11:26.151Z,76.95
2022-11-24T01:13:55.110Z,77.66
2022-11-24T01:16:26.135Z,77.31
2022-11-24T01:18:54.771Z,77.56
2022-11-24T01:21:23.655Z,78.04
2022-11-24T01:23:52.359Z,77.65
2022-11-24T01:26:24.462Z,78.17
2022-11-24T01:28:54.466Z,78.43
2022-11-24T01:31:23.282Z,78.36
2022-11-24T01:33:51.830Z,78.49
2022-11-24T01:36:20.613Z,78.24
2022-11-24T01:38:49.059Z,78.29
2022-11-24T01:41:19.708Z,78.47
2022-11-24T01:43:50.080Z,78.64
2022-11-24T01:46:24.043Z,78.22
2022-11-24T01:48:58.041Z,78.20
2022-11-24T01:51:29.917Z,77.72
2022-11-24T01:54:03.880Z,77.54
2022-11-24T01:56:35.762Z,77.58
2022-11-24T01:59:08.765Z,77.03
2022-11-24T02:01:37.276Z,77.60
2022-11-24T02:04:10.272Z,77.67
2022-11-24T02:06:41.288Z,77.68
2022-11-24T02:09:15.025Z,77.45
2022-11-24T02:11:45.019Z,77.46
2022-11-24T02:14:19.364Z,77.60
2022-11-24T02:16:53.164Z,77.49
2022-11-24T02:19:32.963Z,77.39
2022-11-24T02:22:02.919Z,77.38
2022-11-24T02:24:41.707Z,76.96
2022-11-24T02:27:13.208Z,76.85
2022-11-24T02:29:42.626Z,76.48
2022-11-24T02:32:12.747Z,76.52
2022-11-24T02:34:41.041Z,76.56
2022-11-24T02:37:09.284Z,76.76
2022-11-24T02:39:37.570Z,77.40
2022-11-24T02:42:09.224Z,77.46
2022-11-24T02:44:43.133Z,77.48
2022-11-24T02:47:13.566Z,77.07
2022-11-24T02:49:42.293Z,77.26
2022-11-24T02:52:10.633Z,77.49
2022-11-24T02:54:38.929Z,77.63
2022-11-24T02:57:07.215Z,77.84
2022-11-24T02:59:35.535Z,77.61
2022-11-24T03:02:05.543Z,77.73
2022-11-24T03:04:34.228Z,78.20
2022-11-24T03:07:02.605Z,77.92
2022-11-24T03:09:32.156Z,77.71
2022-11-24T03:12:01.017Z,78.05
2022-11-24T03:14:29.501Z,77.98
2022-11-24T03:16:57.835Z,77.80
2022-11-24T03:19:27.468Z,78.21
2022-11-24T03:21:55.729Z,78.45
2022-11-24T03:24:24.565Z,78.10
2022-11-24T03:26:52.836Z,78.23
2022-11-24T03:29:21.144Z,78.55
2022-11-24T03:31:49.442Z,78.15
2022-11-24T03:34:17.810Z,78.00
2022-11-24T03:36:47.705Z,77.84
2022-11-24T03:39:15.981Z,77.92
2022-11-24T03:41:45.676Z,77.39
2022-11-24T03:44:13.923Z,77.32
2022-11-24T03:46:43.364Z,76.67
2022-11-24T03:49:11.691Z,76.13
2022-11-24T03:51:40.010Z,76.40
2022-11-24T03:54:09.847Z,76.10
2022-11-24T03:56:38.121Z,75.92
2022-11-24T03:59:06.474Z,75.80
2022-11-24T04:01:34.779Z,76.00
2022-11-24T04:04:03.110Z,75.44
2022-11-24T04:06:31.374Z,75.65
2022-11-24T04:09:01.825Z,75.70
2022-11-24T04:11:48.956Z,75.59
2022-11-24T04:14:18.547Z,76.02
2022-11-24T04:16:47.227Z,75.76
2022-11-24T04:19:15.608Z,75.44
2022-11-24T04:21:43.912Z,74.95
2022-11-24T04:24:12.356Z,75.07
2022-11-24T04:26:42.432Z,75.47
2022-11-24T04:29:11.225Z,76.01
2022-11-24T04:31:39.564Z,76.66
2022-11-24T04:34:07.966Z,77.16
2022-11-24T04:36:36.200Z,77.41
2022-11-24T04:39:23.588Z,77.98
2022-11-24T04:41:54.988Z,78.33
2022-11-24T04:44:23.479Z,78.60
2022-11-24T04:46:52.512Z,78.92
2022-11-24T04:49:21.291Z,79.05
2022-11-24T04:51:49.581Z,79.13
2022-11-24T04:54:17.908Z,79.56
2022-11-24T04:56:46.208Z,79.51
2022-11-24T04:59:16.205Z,79.98
2022-11-24T05:01:45.185Z,80.17
2022-11-24T05:04:14.624Z,80.29
2022-11-24T05:06:43.281Z,80.31
2022-11-24T05:09:16.076Z,80.28
2022-11-24T05:11:44.782Z,80.08
2022-11-24T05:14:12.948Z,80.02
2022-11-24T05:16:42.760Z,80.00
2022-11-24T05:19:11.173Z,79.91
2022-11-24T05:21:39.456Z,79.90
2022-11-24T05:24:08.341Z,79.98
2022-11-24T05:26:36.701Z,79.75
2022-11-24T05:29:05.005Z,79.46
2022-11-24T05:31:33.200Z,79.51
2022-11-24T05:34:02.903Z,79.21
2022-11-24T05:36:48.931Z,79.29
2022-11-24T05:39:17.185Z,79.46
2022-11-24T05:41:45.480Z,79.23
2022-11-24T05:44:13.830Z,78.58
2022-11-24T05:46:42.112Z,79.09
2022-11-24T05:49:11.845Z,78.61
2022-11-24T05:51:40.048Z,78.36
2022-11-24T05:54:08.290Z,77.98
2022-11-24T05:56:37.568Z,78.07
2022-11-24T05:59:09.824Z,77.57
2022-11-24T06:01:38.508Z,77.24
2022-11-24T06:04:06.877Z,77.37
2022-11-24T06:06:36.561Z,77.25
2022-11-24T06:09:05.064Z,77.17
2022-11-24T06:11:33.330Z,77.19
2022-11-24T06:14:01.635Z,77.56
2022-11-24T06:16:30.147Z,77.71
2022-11-24T06:18:58.535Z,78.16
2022-11-24T06:21:26.809Z,78.24
2022-11-24T06:23:56.465Z,78.07
2022-11-24T06:26:24.962Z,78.36
2022-11-24T06:28:53.194Z,78.43
2022-11-24T06:31:21.665Z,78.13
2022-11-24T06:33:49.975Z,78.15
2022-11-24T06:36:18.521Z,77.45
2022-11-24T06:38:46.736Z,77.53
2022-11-24T06:41:18.135Z,77.41
2022-11-24T06:43:47.695Z,77.89
2022-11-24T06:46:15.967Z,77.66
2022-11-24T06:48:44.254Z,78.81
2022-11-24T06:51:14.244Z,78.87
2022-11-24T06:53:42.969Z,79.09
2022-11-24T06:56:16.743Z,79.69
2022-11-24T06:58:47.746Z,80.26
2022-11-24T07:01:17.174Z,80.33
2022-11-24T07:03:45.587Z,79.62
2022-11-24T07:06:13.827Z,79.21
2022-11-24T07:08:42.062Z,79.12
2022-11-24T07:11:12.885Z,79.34
2022-11-24T07:13:41.163Z,78.95
2022-11-24T07:16:19.257Z,78.86
2022-11-24T07:18:48.782Z,78.83
2022-11-24T07:21:17.345Z,78.96
2022-11-24T07:23:46.105Z,79.14
2022-11-24T07:26:14.286Z,79.24
2022-11-24T07:28:42.556Z,79.47
2022-11-24T07:31:13.228Z,79.66
2022-11-24T07:33:42.991Z,80.11
2022-11-24T07:36:11.374Z,80.69
2022-11-24T07:38:39.854Z,80.42
2022-11-24T07:41:10.486Z,80.22
2022-11-24T07:43:39.692Z,80.57
2022-11-24T07:46:09.914Z,80.63
2022-11-24T07:48:38.459Z,80.79
2022-11-24T07:51:09.236Z,80.51
2022-11-24T07:53:38.856Z,80.66
2022-11-24T07:56:07.799Z,80.96
2022-11-24T07:58:38.229Z,81.01
2022-11-24T08:01:14.197Z,81.11
2022-11-24T08:03:42.832Z,81.39
2022-11-24T08:06:37.460Z,81.01
2022-11-24T08:09:01.960Z,81.40
2022-11-24T08:11:31.545Z,80.90
2022-11-24T08:14:00.203Z,80.91
2022-11-24T08:16:28.529Z,80.88
2022-11-24T08:18:58.120Z,80.77
2022-11-24T08:21:27.833Z,80.26
2022-11-24T08:23:57.106Z,80.36
2022-11-24T08:26:26.438Z,79.91
2022-11-24T08:28:56.528Z,79.73
2022-11-24T08:31:27.401Z,79.65
2022-11-24T08:33:56.860Z,79.48
2022-11-24T08:36:25.083Z,79.48
2022-11-24T08:38:58.020Z,79.37
2022-11-24T08:41:27.612Z,79.45
2022-11-24T08:43:57.299Z,79.31
2022-11-24T08:46:25.954Z,78.76
2022-11-24T08:48:55.977Z,78.96
2022-11-24T08:51:26.382Z,79.17
2022-11-24T08:53:58.636Z,79.22
2022-11-24T08:56:28.212Z,79.24
2022-11-24T08:58:57.227Z,79.71
2022-11-24T09:01:26.012Z,79.95
2022-11-24T09:03:54.915Z,80.18
2022-11-24T09:06:25.195Z,79.97
2022-11-24T09:08:55.662Z,80.14
2022-11-24T09:11:27.004Z,80.28
2022-11-24T09:13:55.965Z,80.85
2022-11-24T09:16:27.096Z,80.93
2022-11-24T09:19:00.673Z,82.01
2022-11-24T09:21:29.385Z,82.64
2022-11-24T09:23:58.036Z,82.38
2022-11-24T09:26:29.887Z,82.79
2022-11-24T09:29:00.185Z,83.36
2022-11-24T09:31:31.983Z,83.79
2022-11-24T09:34:00.659Z,83.50
2022-11-24T09:36:29.576Z,82.72
2022-11-24T09:38:57.895Z,82.21
2022-11-24T09:41:39.594Z,82.08
2022-11-24T09:44:17.611Z,81.44
2022-11-24T09:46:56.341Z,81.45
2022-11-24T09:49:32.399Z,81.43
2022-11-24T09:52:06.122Z,81.22
2022-11-24T09:54:36.629Z,80.86
2022-11-24T09:57:08.784Z,80.52
2022-11-24T09:59:37.372Z,81.08
2022-11-24T10:02:13.315Z,81.62
2022-11-24T10:04:44.188Z,81.85
2022-11-24T10:07:23.427Z,81.79
2022-11-24T10:10:04.661Z,81.59
2022-11-24T10:12:49.347Z,81.14
2022-11-24T10:15:28.144Z,80.93
2022-11-24T10:18:17.248Z,80.23
2022-11-24T10:21:00.670Z,79.96
2022-11-24T10:23:43.837Z,80.17
2022-11-24T10:26:33.565Z,80.25
2022-11-24T10:29:10.076Z,80.23
2022-11-24T10:31:41.887Z,80.58
2022-11-24T10:34:16.141Z,80.46
2022-11-24T10:36:51.609Z,80.14
2022-11-24T10:39:23.790Z,80.10
2022-11-24T10:41:58.046Z,80.32
2022-11-24T10:44:27.832Z,80.34
2022-11-24T10:46:56.257Z,80.40
2022-11-24T10:49:28.888Z,80.80
2022-11-24T10:52:09.735Z,81.39
2022-11-24T10:54:41.451Z,81.80
2022-11-24T10:57:09.820Z,82.22
2022-11-24T10:59:40.410Z,82.29
2022-11-24T11:02:31.466Z,82.38
2022-11-24T11:05:00.041Z,82.35
2022-11-24T11:07:28.370Z,82.74
2022-11-24T11:10:19.843Z,82.08
2022-11-24T11:12:48.210Z,80.95
2022-11-24T11:15:30.033Z,81.98
2022-11-24T11:18:08.125Z,82.34
2022-11-24T11:20:36.888Z,82.11
2022-11-24T11:23:16.826Z,81.15
2022-11-24T11:25:45.075Z,79.63
2022-11-24T11:28:24.745Z,77.90
2022-11-24T11:31:22.582Z,76.10
2022-11-24T11:34:06.323Z,74.52
2022-11-24T11:36:40.498Z,74.28
2022-11-24T11:39:17.219Z,74.16
2022-11-24T11:41:50.801Z,73.29
2022-11-24T11:44:31.291Z,72.99
2022-11-24T11:47:04.441Z,73.41
2022-11-24T11:49:34.386Z,73.96
2022-11-24T11:52:24.424Z,74.77
2022-11-24T11:55:29.605Z,75.31
2022-11-24T11:58:08.005Z,75.69
2022-11-24T12:00:40.969Z,75.97
2022-11-24T12:03:38.485Z,76.63
2022-11-24T12:06:20.345Z,76.67
2022-11-24T12:11:56.733Z,76.48
2022-11-24T12:14:39.412Z,75.36
2022-11-24T12:17:20.194Z,75.42
2022-11-24T12:20:02.202Z,75.36
2022-11-24T12:22:39.214Z,75.38
2022-11-24T12:25:22.210Z,74.63
2022-11-24T12:28:02.305Z,74.18
2022-11-24T12:30:39.488Z,73.98
2022-11-24T12:33:50.970Z,74.02
2022-11-24T12:36:46.117Z,71.94
2022-11-24T12:39:25.680Z,73.64
2022-11-24T12:42:05.404Z,74.54
2022-11-24T12:44:59.519Z,75.06
2022-11-24T12:47:36.486Z,75.81
2022-11-24T12:50:11.678Z,76.04
2022-11-24T12:52:46.031Z,75.96
2022-11-24T12:55:18.355Z,74.76
2022-11-24T12:57:55.818Z,74.85
2022-11-24T13:00:29.609Z,74.15
2022-11-24T13:03:17.576Z,73.49
2022-11-24T13:05:54.108Z,74.11
2022-11-24T13:08:24.264Z,74.11
2022-11-24T13:10:57.521Z,74.18
2022-11-24T13:13:31.463Z,74.11
2022-11-24T13:19:14.943Z,73.68
2022-11-24T13:21:58.022Z,73.92
2022-11-24T13:24:30.955Z,73.53
2022-11-24T13:27:28.947Z,72.96
2022-11-24T13:29:57.281Z,73.59
2022-11-24T13:33:01.749Z,72.96
2022-11-24T13:35:30.773Z,73.28
2022-11-24T13:37:59.015Z,73.98
2022-11-24T13:41:06.193Z,73.56
2022-11-24T13:43:33.426Z,72.41
2022-11-24T13:46:03.820Z,72.79
2022-11-24T13:49:01.708Z,72.96
2022-11-24T13:51:30.034Z,73.08
2022-11-24T13:54:01.002Z,73.15
2022-11-24T13:56:32.441Z,73.13
2022-11-24T13:59:17.467Z,73.12
2022-11-24T14:01:47.013Z,73.47
2022-11-24T14:04:32.321Z,73.48
2022-11-24T14:07:08.990Z,73.50
2022-11-24T14:09:43.814Z,73.35
2022-11-24T14:12:18.105Z,73.16
2022-11-24T14:14:47.799Z,73.07
2022-11-24T14:17:19.433Z,72.32
2022-11-24T14:19:49.519Z,72.03
2022-11-24T14:22:20.056Z,72.04
2022-11-24T14:24:54.112Z,72.07
2022-11-24T14:27:33.352Z,72.59
2022-11-24T14:30:04.012Z,71.69
2022-11-24T14:32:32.322Z,71.26
2022-11-24T14:35:00.864Z,71.19
2022-11-24T14:37:29.324Z,71.26
2022-11-24T14:39:57.775Z,71.71
2022-11-24T14:42:28.588Z,72.10
2022-11-24T14:44:59.112Z,72.17
2022-11-24T14:47:32.486Z,71.66
2022-11-24T14:50:11.616Z,70.80
2022-11-24T14:52:46.744Z,70.83
2022-11-24T14:55:27.524Z,71.06
2022-11-24T14:57:59.060Z,71.60
2022-11-24T15:00:29.974Z,72.39
2022-11-24T15:03:16.153Z,72.51
2022-11-24T15:05:56.788Z,73.12
2022-11-24T15:08:26.616Z,73.02
2022-11-24T15:11:01.436Z,72.27
2022-11-24T15:13:37.308Z,71.73
2022-11-24T15:16:09.544Z,71.46
2022-11-24T15:18:43.461Z,70.72
2022-11-24T15:21:18.575Z,69.90
2022-11-24T15:24:08.624Z,69.04
2022-11-24T15:26:42.000Z,69.22
2022-11-24T15:29:13.101Z,69.19
2022-11-24T15:31:45.285Z,69.70
2022-11-24T15:34:18.789Z,69.54
2022-11-24T15:36:47.314Z,70.03
2022-11-24T15:39:16.273Z,69.87
2022-11-24T15:41:44.520Z,70.32
2022-11-24T15:44:15.170Z,70.39
2022-11-24T15:46:43.447Z,70.68
2022-11-24T15:49:11.719Z,70.82
2022-11-24T15:51:44.708Z,70.53
2022-11-24T15:54:16.069Z,70.54
2022-11-24T15:56:44.686Z,70.38
2022-11-24T15:59:20.275Z,70.16
2022-11-24T16:01:51.098Z,70.00
2022-11-24T16:04:19.711Z,70.13
2022-11-24T16:06:48.156Z,70.25
2022-11-24T16:09:18.144Z,70.23
2022-11-24T16:11:46.988Z,70.07
2022-11-24T16:14:16.857Z,70.22
2022-11-24T16:16:45.578Z,70.76
2022-11-24T16:19:15.973Z,71.09
2022-11-24T16:21:48.457Z,71.24
2022-11-24T16:24:17.189Z,71.28
2022-11-24T16:26:46.577Z,71.53
2022-11-24T16:29:16.995Z,71.33
2022-11-24T16:31:47.481Z,71.40
2022-11-24T16:34:17.999Z,71.32
2022-11-24T16:36:47.504Z,71.29
2022-11-24T16:39:16.745Z,71.71
2022-11-24T16:41:45.012Z,71.37
2022-11-24T16:44:13.230Z,71.77
2022-11-24T16:46:44.757Z,71.50
2022-11-24T16:49:12.947Z,71.68
2022-11-24T16:51:42.540Z,71.95
2022-11-24T16:54:11.521Z,71.56
2022-11-24T16:56:39.720Z,71.54
2022-11-24T16:59:08.121Z,71.26
2022-11-24T17:01:36.456Z,71.23
2022-11-24T17:04:12.232Z,71.27
2022-11-24T17:06:41.123Z,70.71
2022-11-24T17:09:09.526Z,71.01
2022-11-24T17:11:37.820Z,71.10
2022-11-24T17:14:06.127Z,71.34
2022-11-24T17:16:34.434Z,71.55
2022-11-24T17:19:02.847Z,71.66
2022-11-24T17:21:33.500Z,71.87
2022-11-24T17:24:05.409Z,71.66
2022-11-24T17:26:35.330Z,71.26
2022-11-24T17:29:09.788Z,70.02
2022-11-24T17:31:40.133Z,70.02
2022-11-24T17:34:08.823Z,70.35
2022-11-24T17:36:38.728Z,70.49
2022-11-24T17:39:08.205Z,70.81
2022-11-24T17:41:36.625Z,70.85
2022-11-24T17:44:06.287Z,71.56
2022-11-24T17:46:34.539Z,72.11
2022-11-24T17:49:03.109Z,72.21
2022-11-24T17:51:31.369Z,72.21
2022-11-24T17:54:05.998Z,72.20
2022-11-24T17:56:48.447Z,72.00
2022-11-24T17:59:16.663Z,71.92
2022-11-24T18:01:44.911Z,71.72
2022-11-24T18:04:13.144Z,72.18
2022-11-24T18:06:41.398Z,71.77
2022-11-24T18:09:11.269Z,71.97
2022-11-24T18:11:39.503Z,71.93
2022-11-24T18:14:07.708Z,71.98
2022-11-24T18:16:36.481Z,72.39
2022-11-24T18:19:11.013Z,72.42
2022-11-24T18:21:41.016Z,72.19
2022-11-24T18:24:11.865Z,72.46
2022-11-24T18:26:42.773Z,72.35
2022-11-24T18:29:12.222Z,72.19
2022-11-24T18:31:40.901Z,72.00
2022-11-24T18:34:09.292Z,71.72
2022-11-24T18:36:38.027Z,71.42
2022-11-24T18:39:08.691Z,71.36
2022-11-24T18:41:38.348Z,71.26
2022-11-24T18:44:08.629Z,70.99
2022-11-24T18:46:37.036Z,70.66
2022-11-24T18:49:05.364Z,70.09
2022-11-24T18:51:33.653Z,70.01
2022-11-24T18:54:03.108Z,69.59
2022-11-24T18:56:31.701Z,69.58
2022-11-24T18:59:01.311Z,69.25
2022-11-24T19:01:30.534Z,68.91
2022-11-24T19:04:00.798Z,68.23
2022-11-24T19:06:32.816Z,68.34
2022-11-24T19:09:02.970Z,67.64
2022-11-24T19:11:33.879Z,67.50
2022-11-24T19:14:04.382Z,66.91
2022-11-24T19:16:33.430Z,66.87
2022-11-24T19:19:03.119Z,66.24
2022-11-24T19:21:33.333Z,66.48
2022-11-24T19:24:05.340Z,66.82
2022-11-24T19:26:35.022Z,66.90
2022-11-24T19:29:06.162Z,67.21
2022-11-24T19:31:35.410Z,67.64
2022-11-24T19:34:05.416Z,67.34
2022-11-24T19:36:33.969Z,67.38
2022-11-24T19:39:04.948Z,67.58
2022-11-24T19:41:34.161Z,67.58
2022-11-24T19:44:02.466Z,68.04
2022-11-24T19:46:33.497Z,68.07
2022-11-24T19:49:03.284Z,68.33
2022-11-24T19:51:33.454Z,68.99
2022-11-24T19:54:01.799Z,69.55
2022-11-24T19:56:32.036Z,69.38
2022-11-24T19:59:00.341Z,69.77
2022-11-24T20:01:31.973Z,69.57
2022-11-24T20:04:01.803Z,69.30
2022-11-24T20:06:32.225Z,69.55
2022-11-24T20:09:01.665Z,69.63
2022-11-24T20:11:30.566Z,69.44
2022-11-24T20:13:59.395Z,70.04
2022-11-24T20:16:29.947Z,70.02
2022-11-24T20:19:01.532Z,70.01
2022-11-24T20:21:32.013Z,70.35
2022-11-24T20:24:02.267Z,70.26
2022-11-24T20:26:32.721Z,70.09
2022-11-24T20:29:01.471Z,70.26
2022-11-24T20:31:31.845Z,70.60
2022-11-24T20:34:04.248Z,70.38
2022-11-24T20:36:34.014Z,70.66
2022-11-24T20:39:04.345Z,70.72
2022-11-24T20:41:35.462Z,70.70
2022-11-24T20:44:07.308Z,70.58
2022-11-24T20:46:50.391Z,71.08
2022-11-24T20:49:22.017Z,70.34
2022-11-24T20:51:54.638Z,70.07
2022-11-24T20:54:23.209Z,69.55
2022-11-24T20:56:54.952Z,69.77
2022-11-24T20:59:24.389Z,70.15
2022-11-24T21:01:59.344Z,70.29
2022-11-24T21:04:36.432Z,70.47
2022-11-24T21:07:04.876Z,71.21
2022-11-24T21:09:33.161Z,71.38
2022-11-24T21:12:01.715Z,72.39
2022-11-24T21:14:33.948Z,72.23
2022-11-24T21:17:03.545Z,72.74
2022-11-24T21:19:33.244Z,72.66
2022-11-24T21:22:01.792Z,72.89
2022-11-24T21:24:31.011Z,72.86
2022-11-24T21:26:59.288Z,72.63
2022-11-24T21:29:27.512Z,72.27
2022-11-24T21:31:56.902Z,72.53
2022-11-24T21:34:25.179Z,71.75
2022-11-24T21:36:54.825Z,71.66
2022-11-24T21:39:23.067Z,71.41
2022-11-24T21:41:51.399Z,70.99
2022-11-24T21:44:22.075Z,71.22
2022-11-24T21:46:55.722Z,71.24
2022-11-24T21:49:24.819Z,71.32
2022-11-24T21:51:56.028Z,71.87
2022-11-24T21:54:24.903Z,71.83
2022-11-24T21:56:55.499Z,71.95
2022-11-24T21:59:24.172Z,72.27
2022-11-24T22:01:52.713Z,72.43
2022-11-24T22:04:21.088Z,72.59
2022-11-24T22:06:49.325Z,72.98
2022-11-24T22:09:18.943Z,72.96
2022-11-24T22:11:49.265Z,72.87
2022-11-24T22:14:17.928Z,73.35
2022-11-24T22:16:46.798Z,73.09
2022-11-24T22:19:15.155Z,73.39
2022-11-24T22:21:43.763Z,73.32
2022-11-24T22:24:12.537Z,73.38
2022-11-24T22:26:42.196Z,73.43
2022-11-24T22:29:10.523Z,73.37
2022-11-24T22:31:38.774Z,73.48
2022-11-24T22:34:07.292Z,73.78
2022-11-24T22:36:36.735Z,73.88
2022-11-24T22:39:07.120Z,74.36
2022-11-24T22:41:36.708Z,74.42
2022-11-24T22:44:06.918Z,74.87
2022-11-24T22:46:35.195Z,74.85
2022-11-24T22:49:03.605Z,75.06
2022-11-24T22:51:33.894Z,75.20
2022-11-24T22:54:04.242Z,75.16
2022-11-24T22:56:33.691Z,75.17
2022-11-24T22:59:03.118Z,75.21
2022-11-24T23:01:34.352Z,75.70
2022-11-24T23:04:03.991Z,75.29
2022-11-24T23:06:34.699Z,75.46
2022-11-24T23:09:05.371Z,75.15
2022-11-24T23:11:38.321Z,75.04
2022-11-24T23:14:09.008Z,75.11
2022-11-24T23:16:38.657Z,75.22
2022-11-24T23:19:07.254Z,75.10
2022-11-24T23:21:38.387Z,75.06
2022-11-24T23:24:08.658Z,75.28
2022-11-24T23:26:38.313Z,75.13
2022-11-24T23:29:07.786Z,75.18
2022-11-24T23:31:36.343Z,75.49
2022-11-24T23:34:06.926Z,75.53
2022-11-24T23:36:35.162Z,75.81
2022-11-24T23:39:04.440Z,75.49
2022-11-24T23:41:33.545Z,75.44
2022-11-24T23:44:02.058Z,74.91
2022-11-24T23:46:31.553Z,74.58
2022-11-24T23:49:00.435Z,74.17
2022-11-24T23:51:31.966Z,74.32
2022-11-24T23:54:01.522Z,74.55
2022-11-24T23:56:32.629Z,74.69
2022-11-24T23:59:01.708Z,74.53
